CheckWX is a tool to help pilots better visualize weather data.  It is not intended as a substitute for an official pre-flight weather briefing.

17:26:35 UTC

PATK TAF
Talkeetna Airport
Talkeetna, Alaska, USA
PATK 181135Z 1812/1912 VRB06KT P6SM VCSH OVC050

Jun-18@
12:00 UTC

Jun-18 @ 12:00 UTC

Jun-19@
12:00 UTC

Jun-19 @ 12:00 UTC

PATK 181135Z 1812/1912 VRB06KT P6SM VCSH OVC050
Wind
  • Variable at 6 KTS
Cloud Levels
  • Overcast at 5,000' AGL